Portada
METAR-TAF:

METAR-TAF

Aeropuertos :

Bahía Blanca, Argentina

latitud: 38-44S, longitud: 062-10W, altitud: 75 m

Observación

El informe se hizo hace 14 horas y 52 minutos, a las 11:13 UTC
Viento 7 kt del este-sureste
Temperatura 10°C
Humedad 93%
Presión 1026 hPa
Visibilidad 10 km o más
Nubes dispersas a una altura de 800 ft
Nubes dispersas a una altura de 3000 ft
Cielo cubierto a una altura de 5000 ft
lluvia ligera

METAR: SAZB 031113Z 11007KT 9999 -RA SCT008 SCT030 OVC050 10/09 Q1026

Hora: 23:05 (02:05 UTC)


TAF: falta

Observaciones y pronósticos meteorológicos de más de 4000 aeropuertos (mensajes METAR y TAF).

Los puntos amarillos y rojos representan las estaciones disponibles.

Ponga el ratón en el punto deseado para ver el nombre de la estación.

Haga clic para ver las observaciones y los pronósticos meteorológicos.

Para cambiar el mapa : haga clic en los botones verdes con una cruz de color negro para hacer un zoom, en el botón verde con un guión para alejar o en las flechas verdes para mapas adyacentes.


METAR-TAF: